sensor_id;sensor_type;location;lat;lon;timestamp;temperature;humidity
14079;DHT22;7115;50.150;8.568;2023-02-26T00:00:06;3.60;97.60
14079;DHT22;7115;50.150;8.568;2023-02-26T00:02:38;3.60;97.60
14079;DHT22;7115;50.150;8.568;2023-02-26T00:05:05;3.70;97.70
14079;DHT22;7115;50.150;8.568;2023-02-26T00:07:33;3.70;97.70
14079;DHT22;7115;50.150;8.568;2023-02-26T00:10:00;3.70;97.70
14079;DHT22;7115;50.150;8.568;2023-02-26T00:12:29;3.70;97.70
14079;DHT22;7115;50.150;8.568;2023-02-26T00:14:56;3.70;97.70
14079;DHT22;7115;50.150;8.568;2023-02-26T00:17:40;3.60;97.70
14079;DHT22;7115;50.150;8.568;2023-02-26T00:20:10;3.60;97.70
14079;DHT22;7115;50.150;8.568;2023-02-26T00:22:39;3.60;97.70
14079;DHT22;7115;50.150;8.568;2023-02-26T00:25:07;3.60;97.70
14079;DHT22;7115;50.150;8.568;2023-02-26T00:27:35;3.50;97.70
14079;DHT22;7115;50.150;8.568;2023-02-26T00:30:04;3.50;97.80
14079;DHT22;7115;50.150;8.568;2023-02-26T00:32:32;3.50;97.80
14079;DHT22;7115;50.150;8.568;2023-02-26T00:34:59;3.50;97.90
14079;DHT22;7115;50.150;8.568;2023-02-26T00:37:35;3.40;97.90
14079;DHT22;7115;50.150;8.568;2023-02-26T00:40:14;3.40;97.90
14079;DHT22;7115;50.150;8.568;2023-02-26T00:42:45;3.40;97.90
14079;DHT22;7115;50.150;8.568;2023-02-26T00:45:13;3.30;98.00
14079;DHT22;7115;50.150;8.568;2023-02-26T00:47:46;3.40;98.00
14079;DHT22;7115;50.150;8.568;2023-02-26T00:50:17;3.30;98.10
14079;DHT22;7115;50.150;8.568;2023-02-26T00:52:52;3.30;98.10
14079;DHT22;7115;50.150;8.568;2023-02-26T00:55:24;3.50;98.80
14079;DHT22;7115;50.150;8.568;2023-02-26T00:57:54;3.50;98.90
14079;DHT22;7115;50.150;8.568;2023-02-26T01:00:21;3.60;98.70
14079;DHT22;7115;50.150;8.568;2023-02-26T01:02:48;3.50;98.60
14079;DHT22;7115;50.150;8.568;2023-02-26T01:05:17;3.50;98.50
14079;DHT22;7115;50.150;8.568;2023-02-26T01:07:49;3.50;98.40
14079;DHT22;7115;50.150;8.568;2023-02-26T01:10:18;3.50;98.40
14079;DHT22;7115;50.150;8.568;2023-02-26T01:12:47;3.50;98.40
14079;DHT22;7115;50.150;8.568;2023-02-26T01:15:15;3.40;98.30
14079;DHT22;7115;50.150;8.568;2023-02-26T01:17:46;3.40;98.30
14079;DHT22;7115;50.150;8.568;2023-02-26T01:20:17;3.40;98.30
14079;DHT22;7115;50.150;8.568;2023-02-26T01:22:50;3.40;98.40
14079;DHT22;7115;50.150;8.568;2023-02-26T01:25:23;3.40;98.40
14079;DHT22;7115;50.150;8.568;2023-02-26T01:27:53;3.40;98.40
14079;DHT22;7115;50.150;8.568;2023-02-26T01:30:23;3.40;98.40
14079;DHT22;7115;50.150;8.568;2023-02-26T01:32:56;3.40;98.40
14079;DHT22;7115;50.150;8.568;2023-02-26T01:35:36;3.40;98.40
14079;DHT22;7115;50.150;8.568;2023-02-26T01:38:14;3.30;98.50
14079;DHT22;7115;50.150;8.568;2023-02-26T01:43:57;3.20;98.60
14079;DHT22;7115;50.150;8.568;2023-02-26T01:46:32;3.20;98.60
14079;DHT22;7115;50.150;8.568;2023-02-26T01:49:01;3.20;98.70
14079;DHT22;7115;50.150;8.568;2023-02-26T01:51:42;3.20;98.70
14079;DHT22;7115;50.150;8.568;2023-02-26T01:54:10;3.20;98.70
14079;DHT22;7115;50.150;8.568;2023-02-26T01:56:37;3.10;98.70
14079;DHT22;7115;50.150;8.568;2023-02-26T01:59:09;3.10;98.70
14079;DHT22;7115;50.150;8.568;2023-02-26T02:01:38;3.00;98.70
14079;DHT22;7115;50.150;8.568;2023-02-26T02:04:09;3.00;98.80
14079;DHT22;7115;50.150;8.568;2023-02-26T02:06:37;2.90;98.90
14079;DHT22;7115;50.150;8.568;2023-02-26T02:09:05;2.90;99.00
14079;DHT22;7115;50.150;8.568;2023-02-26T02:11:33;2.90;99.10
14079;DHT22;7115;50.150;8.568;2023-02-26T02:14:11;2.90;99.20
14079;DHT22;7115;50.150;8.568;2023-02-26T02:16:47;2.90;99.30
14079;DHT22;7115;50.150;8.568;2023-02-26T02:19:38;2.90;99.30
14079;DHT22;7115;50.150;8.568;2023-02-26T02:22:45;2.80;99.40
14079;DHT22;7115;50.150;8.568;2023-02-26T02:25:35;2.80;99.50
14079;DHT22;7115;50.150;8.568;2023-02-26T02:28:10;2.80;99.50
14079;DHT22;7115;50.150;8.568;2023-02-26T02:30:55;2.80;99.90
14079;DHT22;7115;50.150;8.568;2023-02-26T02:33:26;2.80;99.70
14079;DHT22;7115;50.150;8.568;2023-02-26T02:35:58;2.80;99.70
14079;DHT22;7115;50.150;8.568;2023-02-26T02:38:31;2.80;99.80
14079;DHT22;7115;50.150;8.568;2023-02-26T02:41:06;2.80;99.90
14079;DHT22;7115;50.150;8.568;2023-02-26T02:43:36;2.80;99.90
14079;DHT22;7115;50.150;8.568;2023-02-26T02:46:06;2.70;99.90
14079;DHT22;7115;50.150;8.568;2023-02-26T02:48:37;2.70;99.90
14079;DHT22;7115;50.150;8.568;2023-02-26T02:51:07;2.80;99.90
14079;DHT22;7115;50.150;8.568;2023-02-26T02:53:38;2.70;99.90
14079;DHT22;7115;50.150;8.568;2023-02-26T02:56:10;2.70;99.90
14079;DHT22;7115;50.150;8.568;2023-02-26T02:58:41;2.80;99.90
14079;DHT22;7115;50.150;8.568;2023-02-26T03:01:14;2.80;99.90
14079;DHT22;7115;50.150;8.568;2023-02-26T03:03:49;2.80;99.90
14079;DHT22;7115;50.150;8.568;2023-02-26T03:06:17;2.80;99.90
14079;DHT22;7115;50.150;8.568;2023-02-26T03:08:45;2.80;99.90
14079;DHT22;7115;50.150;8.568;2023-02-26T03:11:14;2.80;99.90
14079;DHT22;7115;50.150;8.568;2023-02-26T03:13:41;2.80;99.90
14079;DHT22;7115;50.150;8.568;2023-02-26T03:16:23;2.70;99.90
14079;DHT22;7115;50.150;8.568;2023-02-26T03:19:00;2.70;99.90
14079;DHT22;7115;50.150;8.568;2023-02-26T03:21:30;2.80;99.90
14079;DHT22;7115;50.150;8.568;2023-02-26T03:24:06;2.70;99.90
14079;DHT22;7115;50.150;8.568;2023-02-26T03:26:39;2.70;99.90
14079;DHT22;7115;50.150;8.568;2023-02-26T03:29:15;2.60;99.90
14079;DHT22;7115;50.150;8.568;2023-02-26T03:31:52;2.60;99.90
14079;DHT22;7115;50.150;8.568;2023-02-26T03:34:24;2.60;99.90
14079;DHT22;7115;50.150;8.568;2023-02-26T03:36:56;2.60;99.90
14079;DHT22;7115;50.150;8.568;2023-02-26T03:39:26;2.60;99.90
14079;DHT22;7115;50.150;8.568;2023-02-26T03:41:58;2.60;99.90
14079;DHT22;7115;50.150;8.568;2023-02-26T03:44:32;2.60;99.90
14079;DHT22;7115;50.150;8.568;2023-02-26T03:47:05;2.50;99.90
14079;DHT22;7115;50.150;8.568;2023-02-26T03:49:36;2.50;99.90
14079;DHT22;7115;50.150;8.568;2023-02-26T03:52:05;2.50;99.90
14079;DHT22;7115;50.150;8.568;2023-02-26T03:54:36;2.40;99.90
14079;DHT22;7115;50.150;8.568;2023-02-26T03:57:04;2.40;99.90
14079;DHT22;7115;50.150;8.568;2023-02-26T03:59:32;2.40;99.90
14079;DHT22;7115;50.150;8.568;2023-02-26T04:02:03;2.40;99.90
14079;DHT22;7115;50.150;8.568;2023-02-26T04:04:34;2.40;99.90
14079;DHT22;7115;50.150;8.568;2023-02-26T04:07:08;2.30;99.90
14079;DHT22;7115;50.150;8.568;2023-02-26T04:09:36;2.20;99.90
14079;DHT22;7115;50.150;8.568;2023-02-26T04:12:03;2.20;99.90
14079;DHT22;7115;50.150;8.568;2023-02-26T04:14:30;2.20;99.90
14079;DHT22;7115;50.150;8.568;2023-02-26T04:16:57;2.20;99.90
14079;DHT22;7115;50.150;8.568;2023-02-26T04:19:26;2.20;99.90
14079;DHT22;7115;50.150;8.568;2023-02-26T04:21:53;2.10;99.90
14079;DHT22;7115;50.150;8.568;2023-02-26T04:24:20;2.10;99.90
14079;DHT22;7115;50.150;8.568;2023-02-26T04:26:47;2.20;99.90
14079;DHT22;7115;50.150;8.568;2023-02-26T04:29:14;2.20;99.90
14079;DHT22;7115;50.150;8.568;2023-02-26T04:31:41;2.20;99.90
14079;DHT22;7115;50.150;8.568;2023-02-26T04:34:08;2.20;99.90
14079;DHT22;7115;50.150;8.568;2023-02-26T04:36:36;2.20;99.90
14079;DHT22;7115;50.150;8.568;2023-02-26T04:39:03;2.20;99.90
14079;DHT22;7115;50.150;8.568;2023-02-26T04:41:30;2.10;99.90
14079;DHT22;7115;50.150;8.568;2023-02-26T04:43:57;2.10;99.90
14079;DHT22;7115;50.150;8.568;2023-02-26T04:46:24;2.10;99.90
14079;DHT22;7115;50.150;8.568;2023-02-26T04:48:51;2.10;99.90
14079;DHT22;7115;50.150;8.568;2023-02-26T04:51:18;2.10;99.90
14079;DHT22;7115;50.150;8.568;2023-02-26T04:53:46;2.10;99.90
14079;DHT22;7115;50.150;8.568;2023-02-26T04:56:14;2.10;99.90
14079;DHT22;7115;50.150;8.568;2023-02-26T04:58:41;2.10;99.90
14079;DHT22;7115;50.150;8.568;2023-02-26T05:01:08;2.00;99.90
14079;DHT22;7115;50.150;8.568;2023-02-26T05:03:34;2.00;99.90
14079;DHT22;7115;50.150;8.568;2023-02-26T05:06:01;2.00;99.90
14079;DHT22;7115;50.150;8.568;2023-02-26T05:08:28;1.90;99.90
14079;DHT22;7115;50.150;8.568;2023-02-26T05:10:56;2.00;99.90
14079;DHT22;7115;50.150;8.568;2023-02-26T05:13:23;2.00;99.90
14079;DHT22;7115;50.150;8.568;2023-02-26T05:15:52;2.00;99.90
14079;DHT22;7115;50.150;8.568;2023-02-26T05:18:19;1.90;99.90
14079;DHT22;7115;50.150;8.568;2023-02-26T05:20:51;1.90;99.90
14079;DHT22;7115;50.150;8.568;2023-02-26T05:23:18;1.90;99.90
14079;DHT22;7115;50.150;8.568;2023-02-26T05:25:45;2.00;99.90
14079;DHT22;7115;50.150;8.568;2023-02-26T05:28:13;2.00;99.90
14079;DHT22;7115;50.150;8.568;2023-02-26T05:30:40;1.90;99.90
14079;DHT22;7115;50.150;8.568;2023-02-26T05:33:08;1.90;99.90
14079;DHT22;7115;50.150;8.568;2023-02-26T05:35:34;1.90;99.90
14079;DHT22;7115;50.150;8.568;2023-02-26T05:38:01;1.90;99.90
14079;DHT22;7115;50.150;8.568;2023-02-26T05:40:28;1.90;99.90
14079;DHT22;7115;50.150;8.568;2023-02-26T05:42:55;1.90;99.90
14079;DHT22;7115;50.150;8.568;2023-02-26T05:45:24;1.90;99.90
14079;DHT22;7115;50.150;8.568;2023-02-26T05:47:50;1.90;99.90
14079;DHT22;7115;50.150;8.568;2023-02-26T05:50:18;1.80;99.90
14079;DHT22;7115;50.150;8.568;2023-02-26T05:52:44;1.90;99.90
14079;DHT22;7115;50.150;8.568;2023-02-26T05:55:11;1.90;99.90
14079;DHT22;7115;50.150;8.568;2023-02-26T05:57:38;1.90;99.90
14079;DHT22;7115;50.150;8.568;2023-02-26T06:00:07;1.90;99.90
14079;DHT22;7115;50.150;8.568;2023-02-26T06:02:35;1.90;99.90
14079;DHT22;7115;50.150;8.568;2023-02-26T06:05:03;1.90;99.90
14079;DHT22;7115;50.150;8.568;2023-02-26T06:07:30;2.00;99.90
14079;DHT22;7115;50.150;8.568;2023-02-26T06:09:57;2.00;99.90
14079;DHT22;7115;50.150;8.568;2023-02-26T06:12:24;2.00;99.90
14079;DHT22;7115;50.150;8.568;2023-02-26T06:14:51;2.00;99.90
14079;DHT22;7115;50.150;8.568;2023-02-26T06:17:17;2.00;99.90
14079;DHT22;7115;50.150;8.568;2023-02-26T06:19:46;2.00;99.90
14079;DHT22;7115;50.150;8.568;2023-02-26T06:22:13;2.10;99.90
14079;DHT22;7115;50.150;8.568;2023-02-26T06:24:40;2.00;99.90
14079;DHT22;7115;50.150;8.568;2023-02-26T06:27:06;2.10;99.90
14079;DHT22;7115;50.150;8.568;2023-02-26T06:29:33;2.00;99.90
14079;DHT22;7115;50.150;8.568;2023-02-26T06:32:02;2.00;99.90
14079;DHT22;7115;50.150;8.568;2023-02-26T06:34:29;2.00;99.90
14079;DHT22;7115;50.150;8.568;2023-02-26T06:36:57;1.90;99.90
14079;DHT22;7115;50.150;8.568;2023-02-26T06:39:24;1.90;99.90
14079;DHT22;7115;50.150;8.568;2023-02-26T06:41:51;1.90;99.90
14079;DHT22;7115;50.150;8.568;2023-02-26T06:44:18;1.90;99.90
14079;DHT22;7115;50.150;8.568;2023-02-26T06:46:45;1.90;99.90
14079;DHT22;7115;50.150;8.568;2023-02-26T06:49:12;1.80;99.90
14079;DHT22;7115;50.150;8.568;2023-02-26T06:51:39;1.80;99.90
14079;DHT22;7115;50.150;8.568;2023-02-26T06:54:07;1.70;99.90
14079;DHT22;7115;50.150;8.568;2023-02-26T06:56:34;1.70;99.90
14079;DHT22;7115;50.150;8.568;2023-02-26T06:59:01;1.70;99.90
14079;DHT22;7115;50.150;8.568;2023-02-26T07:01:28;1.70;99.90
14079;DHT22;7115;50.150;8.568;2023-02-26T07:03:55;1.70;99.90
14079;DHT22;7115;50.150;8.568;2023-02-26T07:06:21;1.80;99.90
14079;DHT22;7115;50.150;8.568;2023-02-26T07:09:04;1.80;99.90
14079;DHT22;7115;50.150;8.568;2023-02-26T07:11:32;1.80;99.90
14079;DHT22;7115;50.150;8.568;2023-02-26T07:13:59;1.80;99.90
14079;DHT22;7115;50.150;8.568;2023-02-26T07:16:27;1.80;99.90
14079;DHT22;7115;50.150;8.568;2023-02-26T07:18:54;1.80;99.90
14079;DHT22;7115;50.150;8.568;2023-02-26T07:21:21;1.90;99.90
14079;DHT22;7115;50.150;8.568;2023-02-26T07:23:48;1.90;99.90
14079;DHT22;7115;50.150;8.568;2023-02-26T07:26:15;1.90;99.90
14079;DHT22;7115;50.150;8.568;2023-02-26T07:28:44;1.90;99.90
14079;DHT22;7115;50.150;8.568;2023-02-26T07:31:11;2.00;99.90
14079;DHT22;7115;50.150;8.568;2023-02-26T07:33:38;2.00;99.90
14079;DHT22;7115;50.150;8.568;2023-02-26T07:36:06;2.10;99.90
14079;DHT22;7115;50.150;8.568;2023-02-26T07:38:32;2.10;99.90
14079;DHT22;7115;50.150;8.568;2023-02-26T07:40:59;2.10;99.90
14079;DHT22;7115;50.150;8.568;2023-02-26T07:43:26;2.20;99.90
14079;DHT22;7115;50.150;8.568;2023-02-26T07:45:54;2.20;99.90
14079;DHT22;7115;50.150;8.568;2023-02-26T07:48:21;2.30;99.90
14079;DHT22;7115;50.150;8.568;2023-02-26T07:50:51;2.40;99.90
14079;DHT22;7115;50.150;8.568;2023-02-26T07:53:18;2.50;99.90
14079;DHT22;7115;50.150;8.568;2023-02-26T07:55:44;2.70;99.90
14079;DHT22;7115;50.150;8.568;2023-02-26T07:58:11;3.00;99.90
14079;DHT22;7115;50.150;8.568;2023-02-26T08:00:38;3.30;99.90
14079;DHT22;7115;50.150;8.568;2023-02-26T08:03:06;3.70;99.90
14079;DHT22;7115;50.150;8.568;2023-02-26T08:05:33;4.10;99.90
14079;DHT22;7115;50.150;8.568;2023-02-26T08:08:00;4.70;99.90
14079;DHT22;7115;50.150;8.568;2023-02-26T08:10:28;5.30;99.90
14079;DHT22;7115;50.150;8.568;2023-02-26T08:12:54;5.50;99.90
14079;DHT22;7115;50.150;8.568;2023-02-26T08:15:21;5.60;99.90
14079;DHT22;7115;50.150;8.568;2023-02-26T08:17:50;5.60;99.90
14079;DHT22;7115;50.150;8.568;2023-02-26T08:20:19;5.70;99.90
14079;DHT22;7115;50.150;8.568;2023-02-26T08:22:46;6.20;99.90
14079;DHT22;7115;50.150;8.568;2023-02-26T08:25:13;7.00;99.90
14079;DHT22;7115;50.150;8.568;2023-02-26T08:27:40;7.80;99.50
14079;DHT22;7115;50.150;8.568;2023-02-26T08:30:08;8.40;98.90
14079;DHT22;7115;50.150;8.568;2023-02-26T08:32:36;9.10;98.50
14079;DHT22;7115;50.150;8.568;2023-02-26T08:35:03;9.70;98.00
14079;DHT22;7115;50.150;8.568;2023-02-26T08:37:31;10.20;97.30
14079;DHT22;7115;50.150;8.568;2023-02-26T08:39:58;10.70;96.80
14079;DHT22;7115;50.150;8.568;2023-02-26T08:42:25;11.00;96.20
14079;DHT22;7115;50.150;8.568;2023-02-26T08:44:52;11.20;95.70
14079;DHT22;7115;50.150;8.568;2023-02-26T08:47:19;11.50;95.30
14079;DHT22;7115;50.150;8.568;2023-02-26T08:49:56;12.00;94.90
14079;DHT22;7115;50.150;8.568;2023-02-26T08:52:24;12.60;94.40
14079;DHT22;7115;50.150;8.568;2023-02-26T08:54:53;13.10;93.90
14079;DHT22;7115;50.150;8.568;2023-02-26T08:57:19;13.50;93.20
14079;DHT22;7115;50.150;8.568;2023-02-26T08:59:46;13.70;92.50
14079;DHT22;7115;50.150;8.568;2023-02-26T09:02:13;14.10;92.10
14079;DHT22;7115;50.150;8.568;2023-02-26T09:04:40;14.50;91.60
14079;DHT22;7115;50.150;8.568;2023-02-26T09:07:07;14.80;90.90
14079;DHT22;7115;50.150;8.568;2023-02-26T09:09:34;14.90;90.20
14079;DHT22;7115;50.150;8.568;2023-02-26T09:12:03;15.20;89.20
14079;DHT22;7115;50.150;8.568;2023-02-26T09:14:30;15.50;87.80
14079;DHT22;7115;50.150;8.568;2023-02-26T09:16:57;15.70;86.60
14079;DHT22;7115;50.150;8.568;2023-02-26T09:19:24;15.90;85.40
14079;DHT22;7115;50.150;8.568;2023-02-26T09:21:51;16.30;84.20
14079;DHT22;7115;50.150;8.568;2023-02-26T09:24:18;16.80;83.60
14079;DHT22;7115;50.150;8.568;2023-02-26T09:26:45;17.30;81.20
14079;DHT22;7115;50.150;8.568;2023-02-26T09:29:13;17.70;79.40
14079;DHT22;7115;50.150;8.568;2023-02-26T09:31:40;17.90;77.30
14079;DHT22;7115;50.150;8.568;2023-02-26T09:34:07;18.00;75.60
14079;DHT22;7115;50.150;8.568;2023-02-26T09:36:37;17.60;73.70
14079;DHT22;7115;50.150;8.568;2023-02-26T09:39:05;17.10;72.80
14079;DHT22;7115;50.150;8.568;2023-02-26T09:41:35;16.80;72.60
14079;DHT22;7115;50.150;8.568;2023-02-26T09:44:14;16.60;71.80
14079;DHT22;7115;50.150;8.568;2023-02-26T09:46:47;16.30;71.20
14079;DHT22;7115;50.150;8.568;2023-02-26T09:49:25;16.20;71.40
14079;DHT22;7115;50.150;8.568;2023-02-26T09:51:57;16.20;70.80
14079;DHT22;7115;50.150;8.568;2023-02-26T09:54:30;16.30;70.50
14079;DHT22;7115;50.150;8.568;2023-02-26T09:56:59;16.30;69.90
14079;DHT22;7115;50.150;8.568;2023-02-26T09:59:30;16.40;69.50
14079;DHT22;7115;50.150;8.568;2023-02-26T10:02:01;16.30;68.50
14079;DHT22;7115;50.150;8.568;2023-02-26T10:04:47;16.40;68.50
14079;DHT22;7115;50.150;8.568;2023-02-26T10:07:21;16.60;67.50
14079;DHT22;7115;50.150;8.568;2023-02-26T10:09:57;16.50;67.00
14079;DHT22;7115;50.150;8.568;2023-02-26T10:12:29;16.20;66.20
14079;DHT22;7115;50.150;8.568;2023-02-26T10:15:00;15.40;66.20
14079;DHT22;7115;50.150;8.568;2023-02-26T10:17:32;15.30;66.70
14079;DHT22;7115;50.150;8.568;2023-02-26T10:20:03;15.40;66.40
14079;DHT22;7115;50.150;8.568;2023-02-26T10:22:32;15.40;65.90
14079;DHT22;7115;50.150;8.568;2023-02-26T10:25:05;14.90;65.10
14079;DHT22;7115;50.150;8.568;2023-02-26T10:27:52;14.00;65.50
14079;DHT22;7115;50.150;8.568;2023-02-26T10:30:29;13.20;65.80
14079;DHT22;7115;50.150;8.568;2023-02-26T10:33:03;12.50;66.90
14079;DHT22;7115;50.150;8.568;2023-02-26T10:35:33;12.30;68.00
14079;DHT22;7115;50.150;8.568;2023-02-26T10:38:07;12.40;68.60
14079;DHT22;7115;50.150;8.568;2023-02-26T10:40:41;13.10;68.90
14079;DHT22;7115;50.150;8.568;2023-02-26T10:43:15;14.00;68.70
14079;DHT22;7115;50.150;8.568;2023-02-26T10:45:55;15.10;67.80
14079;DHT22;7115;50.150;8.568;2023-02-26T10:48:37;15.50;66.00
14079;DHT22;7115;50.150;8.568;2023-02-26T10:51:12;15.40;65.30
14079;DHT22;7115;50.150;8.568;2023-02-26T10:53:43;15.20;65.40
14079;DHT22;7115;50.150;8.568;2023-02-26T10:56:14;15.20;65.30
14079;DHT22;7115;50.150;8.568;2023-02-26T10:58:42;15.50;64.80
14079;DHT22;7115;50.150;8.568;2023-02-26T11:01:15;15.40;64.20
14079;DHT22;7115;50.150;8.568;2023-02-26T11:03:44;15.20;64.00
14079;DHT22;7115;50.150;8.568;2023-02-26T11:06:16;14.70;63.80
14079;DHT22;7115;50.150;8.568;2023-02-26T11:08:46;14.10;64.30
14079;DHT22;7115;50.150;8.568;2023-02-26T11:11:36;13.70;65.10
14079;DHT22;7115;50.150;8.568;2023-02-26T11:14:03;13.40;65.00
14079;DHT22;7115;50.150;8.568;2023-02-26T11:16:31;13.00;65.60
14079;DHT22;7115;50.150;8.568;2023-02-26T11:18:59;12.50;65.80
14079;DHT22;7115;50.150;8.568;2023-02-26T11:21:29;11.80;66.10
14079;DHT22;7115;50.150;8.568;2023-02-26T11:24:00;11.10;66.90
14079;DHT22;7115;50.150;8.568;2023-02-26T11:26:31;10.40;67.60
14079;DHT22;7115;50.150;8.568;2023-02-26T11:29:00;9.90;68.50
14079;DHT22;7115;50.150;8.568;2023-02-26T11:31:28;9.60;69.20
14079;DHT22;7115;50.150;8.568;2023-02-26T11:34:01;9.30;69.60
14079;DHT22;7115;50.150;8.568;2023-02-26T11:36:30;9.20;70.10
14079;DHT22;7115;50.150;8.568;2023-02-26T11:39:06;9.00;70.60
14079;DHT22;7115;50.150;8.568;2023-02-26T11:41:37;9.00;71.00
14079;DHT22;7115;50.150;8.568;2023-02-26T11:44:05;9.00;71.20
14079;DHT22;7115;50.150;8.568;2023-02-26T11:46:37;8.90;71.20
14079;DHT22;7115;50.150;8.568;2023-02-26T11:49:09;8.90;71.60
14079;DHT22;7115;50.150;8.568;2023-02-26T11:51:41;8.70;71.80
14079;DHT22;7115;50.150;8.568;2023-02-26T11:54:20;8.60;72.00
14079;DHT22;7115;50.150;8.568;2023-02-26T11:56:47;8.40;72.50
14079;DHT22;7115;50.150;8.568;2023-02-26T11:59:18;8.40;73.00
14079;DHT22;7115;50.150;8.568;2023-02-26T12:01:46;8.50;73.40
14079;DHT22;7115;50.150;8.568;2023-02-26T12:04:18;8.50;73.60
14079;DHT22;7115;50.150;8.568;2023-02-26T12:06:46;8.50;73.60
14079;DHT22;7115;50.150;8.568;2023-02-26T12:09:14;8.40;73.70
14079;DHT22;7115;50.150;8.568;2023-02-26T12:12:05;8.30;74.00
14079;DHT22;7115;50.150;8.568;2023-02-26T12:14:43;8.20;74.40
14079;DHT22;7115;50.150;8.568;2023-02-26T12:17:30;8.20;74.50
14079;DHT22;7115;50.150;8.568;2023-02-26T12:20:07;8.10;74.90
14079;DHT22;7115;50.150;8.568;2023-02-26T12:22:58;8.00;75.00
14079;DHT22;7115;50.150;8.568;2023-02-26T12:25:45;7.80;75.00
14079;DHT22;7115;50.150;8.568;2023-02-26T12:28:40;7.50;75.40
14079;DHT22;7115;50.150;8.568;2023-02-26T12:31:22;7.40;76.00
14079;DHT22;7115;50.150;8.568;2023-02-26T12:34:02;7.30;76.40
14079;DHT22;7115;50.150;8.568;2023-02-26T12:36:44;7.20;76.70
14079;DHT22;7115;50.150;8.568;2023-02-26T12:39:28;7.20;76.90
14079;DHT22;7115;50.150;8.568;2023-02-26T12:42:05;7.10;77.10
14079;DHT22;7115;50.150;8.568;2023-02-26T12:44:58;7.00;77.30
14079;DHT22;7115;50.150;8.568;2023-02-26T12:47:38;6.90;77.70
14079;DHT22;7115;50.150;8.568;2023-02-26T12:50:22;6.90;78.80
14079;DHT22;7115;50.150;8.568;2023-02-26T12:53:08;7.00;78.10
14079;DHT22;7115;50.150;8.568;2023-02-26T12:55:47;6.90;78.00
14079;DHT22;7115;50.150;8.568;2023-02-26T13:01:24;6.80;78.60
14079;DHT22;7115;50.150;8.568;2023-02-26T13:04:41;6.80;79.50
14079;DHT22;7115;50.150;8.568;2023-02-26T13:07:39;7.00;78.90
14079;DHT22;7115;50.150;8.568;2023-02-26T13:10:23;7.10;79.40
14079;DHT22;7115;50.150;8.568;2023-02-26T13:13:06;7.30;78.60
14079;DHT22;7115;50.150;8.568;2023-02-26T13:15:46;7.20;78.20
14079;DHT22;7115;50.150;8.568;2023-02-26T13:18:22;7.10;78.20
14079;DHT22;7115;50.150;8.568;2023-02-26T13:20:56;7.10;78.50
14079;DHT22;7115;50.150;8.568;2023-02-26T13:23:30;7.00;78.70
14079;DHT22;7115;50.150;8.568;2023-02-26T13:26:01;7.00;78.80
14079;DHT22;7115;50.150;8.568;2023-02-26T13:28:38;7.00;79.00
14079;DHT22;7115;50.150;8.568;2023-02-26T13:31:10;7.10;79.20
14079;DHT22;7115;50.150;8.568;2023-02-26T13:33:39;7.10;79.20
14079;DHT22;7115;50.150;8.568;2023-02-26T13:36:07;7.00;79.30
14079;DHT22;7115;50.150;8.568;2023-02-26T13:38:48;7.00;79.60
14079;DHT22;7115;50.150;8.568;2023-02-26T13:41:24;6.90;79.60
14079;DHT22;7115;50.150;8.568;2023-02-26T13:44:05;6.80;80.00
14079;DHT22;7115;50.150;8.568;2023-02-26T13:47:02;6.70;80.30
14079;DHT22;7115;50.150;8.568;2023-02-26T13:49:41;6.50;80.70
14079;DHT22;7115;50.150;8.568;2023-02-26T13:52:24;6.40;81.10
14079;DHT22;7115;50.150;8.568;2023-02-26T13:54:51;6.20;81.30
14079;DHT22;7115;50.150;8.568;2023-02-26T13:57:33;6.10;81.50
14079;DHT22;7115;50.150;8.568;2023-02-26T14:00:06;6.10;81.90
14079;DHT22;7115;50.150;8.568;2023-02-26T14:02:50;6.10;82.20
14079;DHT22;7115;50.150;8.568;2023-02-26T14:05:31;6.10;82.60
14079;DHT22;7115;50.150;8.568;2023-02-26T14:10:57;6.30;83.20
14079;DHT22;7115;50.150;8.568;2023-02-26T14:13:34;6.60;83.00
14079;DHT22;7115;50.150;8.568;2023-02-26T14:16:09;6.70;82.90
14079;DHT22;7115;50.150;8.568;2023-02-26T14:18:41;6.80;82.70
14079;DHT22;7115;50.150;8.568;2023-02-26T14:21:34;6.70;82.50
14079;DHT22;7115;50.150;8.568;2023-02-26T14:24:04;7.10;82.50
14079;DHT22;7115;50.150;8.568;2023-02-26T14:26:34;7.20;82.40
14079;DHT22;7115;50.150;8.568;2023-02-26T14:29:16;7.20;82.50
14079;DHT22;7115;50.150;8.568;2023-02-26T14:31:53;7.40;82.40
14079;DHT22;7115;50.150;8.568;2023-02-26T14:34:22;7.40;82.20
14079;DHT22;7115;50.150;8.568;2023-02-26T14:36:52;7.60;82.20
14079;DHT22;7115;50.150;8.568;2023-02-26T14:39:26;7.60;81.80
14079;DHT22;7115;50.150;8.568;2023-02-26T14:41:58;7.70;81.90
14079;DHT22;7115;50.150;8.568;2023-02-26T14:44:28;7.80;81.70
14079;DHT22;7115;50.150;8.568;2023-02-26T14:46:56;7.70;81.50
14079;DHT22;7115;50.150;8.568;2023-02-26T14:49:27;7.60;81.40
14079;DHT22;7115;50.150;8.568;2023-02-26T14:52:17;7.50;81.40
14079;DHT22;7115;50.150;8.568;2023-02-26T14:55:08;7.30;81.30
14079;DHT22;7115;50.150;8.568;2023-02-26T14:57:43;7.10;81.30
14079;DHT22;7115;50.150;8.568;2023-02-26T15:00:23;7.00;81.40
14079;DHT22;7115;50.150;8.568;2023-02-26T15:03:17;7.00;81.30
14079;DHT22;7115;50.150;8.568;2023-02-26T15:06:00;6.90;81.10
14079;DHT22;7115;50.150;8.568;2023-02-26T15:08:45;6.80;81.00
14079;DHT22;7115;50.150;8.568;2023-02-26T15:14:40;6.70;81.70
14079;DHT22;7115;50.150;8.568;2023-02-26T15:17:21;6.70;81.10
14079;DHT22;7115;50.150;8.568;2023-02-26T15:20:03;6.70;81.30
14079;DHT22;7115;50.150;8.568;2023-02-26T15:22:43;6.80;81.10
14079;DHT22;7115;50.150;8.568;2023-02-26T15:25:23;6.80;81.00
14079;DHT22;7115;50.150;8.568;2023-02-26T15:27:52;6.90;81.00
14079;DHT22;7115;50.150;8.568;2023-02-26T15:30:19;6.90;81.00
14079;DHT22;7115;50.150;8.568;2023-02-26T15:32:48;6.80;80.90
14079;DHT22;7115;50.150;8.568;2023-02-26T15:35:17;6.70;80.80
14079;DHT22;7115;50.150;8.568;2023-02-26T15:37:48;6.50;80.70
14079;DHT22;7115;50.150;8.568;2023-02-26T15:40:15;6.40;80.80
14079;DHT22;7115;50.150;8.568;2023-02-26T15:42:43;6.20;80.80
14079;DHT22;7115;50.150;8.568;2023-02-26T15:45:14;6.10;80.80
14079;DHT22;7115;50.150;8.568;2023-02-26T15:47:44;6.00;81.00
14079;DHT22;7115;50.150;8.568;2023-02-26T15:50:15;5.90;81.10
14079;DHT22;7115;50.150;8.568;2023-02-26T15:52:42;5.80;80.90
14079;DHT22;7115;50.150;8.568;2023-02-26T15:55:14;5.70;80.90
14079;DHT22;7115;50.150;8.568;2023-02-26T15:57:43;5.60;81.10
14079;DHT22;7115;50.150;8.568;2023-02-26T16:00:16;5.50;81.00
14079;DHT22;7115;50.150;8.568;2023-02-26T16:02:51;5.50;81.10
14079;DHT22;7115;50.150;8.568;2023-02-26T16:05:20;5.40;81.10
14079;DHT22;7115;50.150;8.568;2023-02-26T16:07:47;5.40;81.20
14079;DHT22;7115;50.150;8.568;2023-02-26T16:10:25;5.40;81.30
14079;DHT22;7115;50.150;8.568;2023-02-26T16:12:53;5.40;81.40
14079;DHT22;7115;50.150;8.568;2023-02-26T16:15:27;5.50;81.40
14079;DHT22;7115;50.150;8.568;2023-02-26T16:17:55;5.60;81.40
14079;DHT22;7115;50.150;8.568;2023-02-26T16:20:26;5.60;81.40
14079;DHT22;7115;50.150;8.568;2023-02-26T16:22:56;5.60;81.40
14079;DHT22;7115;50.150;8.568;2023-02-26T16:25:27;5.70;81.40
14079;DHT22;7115;50.150;8.568;2023-02-26T16:27:58;5.70;81.40
14079;DHT22;7115;50.150;8.568;2023-02-26T16:30:31;5.70;81.50
14079;DHT22;7115;50.150;8.568;2023-02-26T16:32:59;5.70;81.60
14079;DHT22;7115;50.150;8.568;2023-02-26T16:35:32;5.70;81.70
14079;DHT22;7115;50.150;8.568;2023-02-26T16:38:11;5.60;81.80
14079;DHT22;7115;50.150;8.568;2023-02-26T16:40:43;5.50;81.80